Time;durP1;ratioP1;P1;durP2;ratioP2;P2;SDS_P1;SDS_P2;PMS_P1;PMS_P2;Temp;Humidity;BMP_temperature;BMP_pressure;BME280_temperature;BME280_humidity;BME280_pressure;Samples;Min_cycle;Max_cycle;Signal;HPM_P1;HPM_P2
2022/03/13 00:02:41;;;;;;;4.15;1.80;;;;;;;1.95;35.86;98625.78;10336279;28;20089;-82
2022/03/13 00:07:47;;;;;;;5.20;2.03;;;;;;;1.88;35.88;98622.72;10331972;28;20124;-81
2022/03/13 00:12:50;;;;;;;2.40;1.90;;;;;;;1.85;35.38;98621.09;10323133;28;20074;-82
2022/03/13 00:17:58;;;;;;;3.25;2.15;;;;;;;1.81;36.21;98611.66;10340902;28;20044;-82
2022/03/13 00:23:03;;;;;;;2.38;1.90;;;;;;;1.74;36.44;98614.81;10338736;28;20054;-81
2022/03/13 00:28:07;;;;;;;3.45;2.17;;;;;;;1.69;35.96;98613.28;10333902;28;20069;-80
2022/03/13 00:33:10;;;;;;;2.67;2.13;;;;;;;1.69;36.05;98613.28;10323089;28;20086;-80
2022/03/13 00:38:15;;;;;;;2.85;2.20;;;;;;;1.67;35.95;98609.88;10330878;28;20057;-82
2022/03/13 00:43:46;;;;;;;2.95;2.17;;;;;;;1.66;35.72;98613.47;10324751;28;20034;-81
2022/03/13 00:48:50;;;;;;;2.42;2.05;;;;;;;1.67;36.20;98619.66;10361080;28;20071;-81
2022/03/13 00:53:54;;;;;;;2.70;2.00;;;;;;;1.64;36.48;98611.88;10325224;28;20121;-81
2022/03/13 00:58:57;;;;;;;3.67;2.00;;;;;;;1.67;35.92;98606.38;10319550;28;20081;-82
2022/03/13 01:04:00;;;;;;;3.58;2.00;;;;;;;1.66;36.09;98600.19;10322519;28;20137;-81
2022/03/13 01:09:05;;;;;;;4.00;1.60;;;;;;;1.78;35.95;98593.25;10317910;28;20072;-83
2022/03/13 01:14:09;;;;;;;3.92;2.00;;;;;;;1.77;35.74;98588.88;10335002;28;20062;-83
2022/03/13 01:19:12;;;;;;;1.98;1.77;;;;;;;1.69;35.59;98584.06;10331885;28;20057;-82
2022/03/13 01:24:30;;;;;;;3.83;2.05;;;;;;;1.67;35.42;98579.81;10329353;28;20046;-83
2022/03/13 01:29:35;;;;;;;2.15;1.90;;;;;;;1.61;35.80;98577.56;10327084;28;20054;-82
2022/03/13 01:34:44;;;;;;;3.78;1.88;;;;;;;1.52;35.53;98579.88;10312105;28;20937;-82
2022/03/13 01:39:49;;;;;;;6.15;2.10;;;;;;;1.48;35.62;98573.03;10316896;28;20062;-82
2022/03/13 01:44:53;;;;;;;3.80;1.90;;;;;;;1.41;36.01;98582.38;10317764;28;20046;-82
2022/03/13 01:49:59;;;;;;;3.10;1.83;;;;;;;1.34;36.50;98581.06;10329802;28;20047;-82
2022/03/13 01:55:05;;;;;;;2.97;2.15;;;;;;;1.26;36.37;98578.03;10329325;28;20066;-81
2022/03/13 02:00:10;;;;;;;2.55;2.22;;;;;;;1.17;37.00;98564.41;10328612;28;20082;-82
2022/03/13 02:05:33;;;;;;;2.15;1.80;;;;;;;1.12;36.76;98576.28;10327202;28;20062;-81
2022/03/13 02:10:37;;;;;;;4.55;2.08;;;;;;;1.05;36.96;98563.41;10323776;28;20081;-81
2022/03/13 02:15:40;;;;;;;2.92;2.28;;;;;;;0.98;37.03;98556.78;10314122;28;20057;-81
2022/03/13 02:20:45;;;;;;;3.30;1.85;;;;;;;0.90;36.90;98549.31;10322174;28;20495;-81
2022/03/13 02:25:51;;;;;;;2.70;2.00;;;;;;;0.87;36.78;98546.88;10318900;28;20042;-81
2022/03/13 02:30:59;;;;;;;2.38;2.00;;;;;;;0.84;37.19;98548.84;10318538;28;20077;-83
2022/03/13 02:36:05;;;;;;;2.58;1.98;;;;;;;0.80;37.61;98542.88;10325396;28;20558;-80
2022/03/13 02:41:10;;;;;;;3.58;2.00;;;;;;;0.75;37.14;98543.16;10329383;28;20050;-80
2022/03/13 02:46:20;;;;;;;2.53;2.03;;;;;;;0.69;37.37;98540.91;10326720;28;20142;-80
2022/03/13 02:51:23;;;;;;;2.47;2.10;;;;;;;0.64;37.91;98539.50;10292452;28;20078;-79
2022/03/13 02:56:27;;;;;;;3.05;2.17;;;;;;;0.58;38.15;98532.78;10317422;28;20082;-80
2022/03/13 03:01:30;;;;;;;2.88;2.20;;;;;;;0.52;38.31;98535.78;10336043;28;20043;-80
2022/03/13 03:06:35;;;;;;;3.30;2.28;;;;;;;0.48;38.03;98534.28;10331228;28;20081;-80
2022/03/13 03:11:39;;;;;;;4.55;1.95;;;;;;;0.43;37.64;98542.50;10342038;28;20490;-80
2022/03/13 03:16:42;;;;;;;2.67;2.13;;;;;;;0.37;38.15;98534.94;10341642;28;20490;-80
2022/03/13 03:21:45;;;;;;;2.40;1.92;;;;;;;0.31;37.97;98533.53;10332849;28;20444;-80
2022/03/13 03:26:50;;;;;;;2.53;2.10;;;;;;;0.28;38.00;98533.69;10349682;28;20073;-80
2022/03/13 03:31:55;;;;;;;2.53;2.20;;;;;;;0.27;37.66;98532.88;10358533;28;20046;-80
2022/03/13 03:37:00;;;;;;;4.63;2.05;;;;;;;0.29;38.03;98525.66;10351276;28;20034;-79
2022/03/13 03:42:05;;;;;;;3.17;2.10;;;;;;;0.30;37.48;98531.81;10331343;28;20050;-78
2022/03/13 03:47:08;;;;;;;6.07;2.30;;;;;;;0.30;38.01;98532.66;10356257;28;20407;-79
2022/03/13 03:52:11;;;;;;;3.10;2.28;;;;;;;0.29;37.91;98536.25;10346275;28;20034;-78
2022/03/13 03:57:15;;;;;;;3.80;2.00;;;;;;;0.28;37.79;98536.34;10363187;28;20050;-77
2022/03/13 04:02:19;;;;;;;2.67;2.17;;;;;;;0.25;37.84;98533.88;10316053;28;20046;-77
2022/03/13 04:07:22;;;;;;;2.50;2.15;;;;;;;0.19;38.14;98531.63;10318531;28;20043;-77
2022/03/13 04:12:27;;;;;;;2.17;1.95;;;;;;;0.13;38.45;98535.50;10351000;28;20098;-78
2022/03/13 04:17:30;;;;;;;4.32;2.35;;;;;;;0.07;39.07;98541.16;10340546;28;20124;-77
2022/03/13 04:22:34;;;;;;;2.92;2.10;;;;;;;0.01;38.91;98531.78;10323904;28;20491;-77
2022/03/13 04:27:38;;;;;;;2.75;2.13;;;;;;;-0.05;38.69;98538.28;10315635;28;20138;-77
2022/03/13 04:32:41;;;;;;;3.08;2.17;;;;;;;-0.11;38.94;98546.63;10338452;28;20070;-78
2022/03/13 04:37:44;;;;;;;3.72;1.95;;;;;;;-0.16;38.81;98541.59;10330811;28;20129;-78
2022/03/13 04:42:50;;;;;;;2.50;1.80;;;;;;;-0.18;39.09;98542.63;10321296;28;20487;-78
2022/03/13 04:47:54;;;;;;;3.00;2.20;;;;;;;-0.22;38.80;98541.94;10332710;28;20050;-81
2022/03/13 04:52:57;;;;;;;2.88;2.10;;;;;;;-0.26;39.24;98553.66;10316635;28;20051;-78
2022/03/13 04:58:01;;;;;;;2.83;2.17;;;;;;;-0.33;39.20;98552.31;10314571;28;20082;-77
2022/03/13 05:03:05;;;;;;;3.13;2.17;;;;;;;-0.39;39.08;98561.44;10299549;28;20035;-77
2022/03/13 05:08:14;;;;;;;4.28;1.90;;;;;;;-0.51;39.74;98563.03;10300637;28;20074;-77
2022/03/13 05:13:21;;;;;;;2.28;1.98;;;;;;;-0.58;40.19;98563.47;10293579;28;20563;-76
2022/03/13 05:18:24;;;;;;;2.28;2.08;;;;;;;-0.64;40.36;98560.22;10295876;28;20102;-76
2022/03/13 05:23:27;;;;;;;4.13;2.10;;;;;;;-0.66;40.36;98563.88;10292268;28;20049;-77
2022/03/13 05:28:32;;;;;;;2.50;2.10;;;;;;;-0.68;40.32;98571.94;10304350;28;20078;-77
2022/03/13 05:33:35;;;;;;;3.33;2.00;;;;;;;-0.72;40.48;98567.75;10298529;28;20058;-82
2022/03/13 05:38:38;;;;;;;2.88;2.10;;;;;;;-0.73;40.79;98571.31;10295608;28;20074;-77
2022/03/13 05:43:43;;;;;;;3.72;2.28;;;;;;;-0.72;40.71;98575.69;10303329;28;20051;-77
2022/03/13 05:48:46;;;;;;;3.47;2.10;;;;;;;-0.72;40.83;98573.03;10302173;28;20105;-77
2022/03/13 05:53:49;;;;;;;2.33;2.13;;;;;;;-0.68;41.06;98581.63;10300814;28;20049;-77
2022/03/13 05:58:53;;;;;;;3.00;1.98;;;;;;;-0.69;41.08;98586.09;10309097;28;20121;-78
2022/03/13 06:03:57;;;;;;;5.05;2.10;;;;;;;-0.66;41.11;98585.06;10301290;28;20057;-78
2022/03/13 06:09:01;;;;;;;3.67;1.95;;;;;;;-0.64;41.24;98591.97;10299066;28;20062;-78
2022/03/13 06:14:05;;;;;;;3.22;2.13;;;;;;;-0.60;40.96;98589.16;10308361;28;21130;-78
2022/03/13 06:19:17;;;;;;;3.15;2.10;;;;;;;-0.53;40.85;98585.25;10315157;28;20093;-77
2022/03/13 06:24:21;;;;;;;2.85;2.40;;;;;;;-0.49;40.70;98592.91;10330831;28;20419;-77
2022/03/13 06:29:25;;;;;;;4.00;2.33;;;;;;;-0.39;40.82;98593.22;10310951;28;20130;-77
2022/03/13 06:34:28;;;;;;;2.50;2.00;;;;;;;-0.28;40.74;98592.63;10304992;28;20414;-78
2022/03/13 06:39:32;;;;;;;2.72;2.15;;;;;;;-0.21;40.65;98596.59;10305867;28;20137;-78
2022/03/13 06:44:36;;;;;;;2.42;2.13;;;;;;;-0.14;40.54;98591.81;10311644;28;20602;-78
2022/03/13 06:49:39;;;;;;;2.55;1.88;;;;;;;0.02;40.71;98590.91;10322439;28;20154;-78
2022/03/13 06:54:43;;;;;;;3.33;2.35;;;;;;;0.29;40.52;98586.59;10322094;28;20562;-85
2022/03/13 06:59:48;;;;;;;2.80;1.98;;;;;;;0.48;40.02;98580.19;10317829;28;20047;-80
2022/03/13 07:04:51;;;;;;;2.15;1.95;;;;;;;0.69;39.68;98593.09;10322241;28;20058;-82
2022/03/13 07:09:57;;;;;;;2.70;2.10;;;;;;;0.96;39.14;98597.63;10321143;28;20046;-84
2022/03/13 07:15:03;;;;;;;3.15;2.20;;;;;;;1.17;37.99;98600.72;10322369;28;20424;-83
2022/03/13 07:20:08;;;;;;;2.55;2.20;;;;;;;1.38;37.60;98593.19;10320909;28;20062;-82
2022/03/13 07:25:11;;;;;;;4.28;2.00;;;;;;;1.63;37.41;98596.91;10333366;28;20051;-79
2022/03/13 07:30:15;;;;;;;2.70;2.10;;;;;;;1.75;37.47;98587.28;10342446;28;20129;-80
2022/03/13 07:35:18;;;;;;;2.65;2.08;;;;;;;1.98;37.08;98591.06;10338207;28;20055;-83
2022/03/13 07:40:21;;;;;;;3.42;2.20;;;;;;;2.14;37.22;98583.75;10329351;28;20142;-80
2022/03/13 07:45:26;;;;;;;4.30;2.00;;;;;;;2.34;37.42;98580.72;10329696;28;20956;-80
2022/03/13 07:50:30;;;;;;;4.15;2.20;;;;;;;2.46;36.73;98570.06;10322932;28;20092;-83
2022/03/13 07:55:33;;;;;;;2.28;2.05;;;;;;;2.72;36.21;98574.50;10322998;28;20066;-80
2022/03/13 08:00:37;;;;;;;3.33;2.20;;;;;;;2.84;36.60;98564.84;10319562;28;20562;-80
2022/03/13 08:05:41;;;;;;;2.75;2.10;;;;;;;3.15;36.58;98559.97;10321604;28;20113;-78
2022/03/13 08:10:44;;;;;;;3.50;2.20;;;;;;;3.23;36.67;98550.47;10320175;28;20574;-82
2022/03/13 08:15:48;;;;;;;2.75;2.13;;;;;;;3.51;35.60;98544.94;10316048;28;20139;-79
2022/03/13 08:20:51;;;;;;;3.85;2.05;;;;;;;3.58;36.92;98546.19;10317877;28;20059;-79
2022/03/13 08:25:55;;;;;;;2.10;1.90;;;;;;;3.82;36.36;98548.81;10318991;28;20047;-80
2022/03/13 08:30:59;;;;;;;2.67;2.30;;;;;;;4.05;36.30;98551.56;10321746;28;20529;-80
2022/03/13 08:36:02;;;;;;;2.20;1.90;;;;;;;4.41;35.58;98533.69;10328330;28;20050;-80
2022/03/13 08:41:06;;;;;;;3.88;2.05;;;;;;;4.76;34.64;98537.25;10328193;28;20042;-81
2022/03/13 08:46:12;;;;;;;2.25;1.85;;;;;;;5.15;33.39;98540.34;10328637;28;20085;-82
2022/03/13 08:51:18;;;;;;;2.40;1.88;;;;;;;5.50;33.81;98533.97;10312717;28;20043;-81
2022/03/13 08:56:21;;;;;;;3.00;2.00;;;;;;;5.80;33.64;98535.06;10318908;28;20164;-81
2022/03/13 09:01:26;;;;;;;1.70;1.60;;;;;;;6.00;31.90;98533.41;10324224;28;20388;-82
2022/03/13 09:06:30;;;;;;;2.50;1.77;;;;;;;6.22;32.69;98528.06;10335322;28;20035;-84
2022/03/13 09:11:34;;;;;;;4.53;2.10;;;;;;;6.55;32.29;98537.72;10316023;28;20117;-80
2022/03/13 09:16:42;;;;;;;1.75;1.65;;;;;;;6.77;30.50;98533.16;10330389;28;20145;-81
2022/03/13 09:21:46;;;;;;;2.25;1.90;;;;;;;7.09;29.67;98530.34;10336189;28;20050;-80
2022/03/13 09:26:49;;;;;;;3.25;2.00;;;;;;;7.35;31.25;98529.81;10308006;28;20039;-78
2022/03/13 09:31:53;;;;;;;3.92;2.00;;;;;;;7.55;30.35;98527.19;10314789;28;20137;-80
2022/03/13 09:36:56;;;;;;;3.78;1.90;;;;;;;7.80;29.87;98528.47;10298927;28;20054;-81
2022/03/13 09:41:59;;;;;;;2.33;1.73;;;;;;;8.11;30.39;98522.09;10308917;28;20051;-80
2022/03/13 09:47:05;;;;;;;2.70;1.88;;;;;;;8.31;30.12;98526.44;10310711;28;20129;-79
2022/03/13 09:52:08;;;;;;;1.92;1.70;;;;;;;8.46;29.14;98523.28;10310111;28;20057;-83
2022/03/13 09:57:12;;;;;;;2.75;1.92;;;;;;;8.54;30.14;98525.28;10317708;28;20066;-85
2022/03/13 10:02:16;;;;;;;2.22;2.00;;;;;;;8.66;29.59;98531.31;10325106;28;20076;-86
2022/03/13 10:07:24;;;;;;;2.33;1.85;;;;;;;8.68;28.72;98526.66;10322320;28;20055;-83
2022/03/13 10:12:27;;;;;;;4.80;2.00;;;;;;;8.87;28.20;98523.03;10320304;28;20078;-83
2022/03/13 10:17:34;;;;;;;2.10;1.70;;;;;;;9.12;28.55;98524.19;10320254;28;20077;-83
2022/03/13 10:22:37;;;;;;;3.10;2.30;;;;;;;9.27;28.58;98521.00;10325829;28;20046;-82
2022/03/13 10:27:41;;;;;;;2.35;1.88;;;;;;;9.39;29.35;98509.03;10321292;28;20410;-77
2022/03/13 10:32:55;;;;;;;2.88;2.10;;;;;;;9.62;28.75;98505.91;10310003;28;20061;-78
2022/03/13 10:37:58;;;;;;;3.08;2.00;;;;;;;9.82;28.50;98510.13;10311400;28;20053;-78
2022/03/13 10:43:09;;;;;;;3.25;1.80;;;;;;;10.05;27.99;98498.91;10305527;28;20121;-75
2022/03/13 10:48:30;;;;;;;2.35;1.77;;;;;;;10.22;27.10;98485.56;10307017;28;20057;-79
2022/03/13 10:53:33;;;;;;;2.87;1.93;;;;;;;10.41;26.74;98498.00;10327434;28;20077;-79
2022/03/13 10:58:39;;;;;;;1.73;1.63;;;;;;;10.51;27.33;98487.13;10337537;28;20105;-78
2022/03/13 11:03:51;;;;;;;3.08;1.83;;;;;;;10.75;27.75;98484.59;10336368;28;20073;-80
2022/03/13 11:08:55;;;;;;;2.67;1.70;;;;;;;10.92;26.70;98482.81;10336985;28;20035;-79
2022/03/13 11:14:01;;;;;;;1.80;1.60;;;;;;;11.07;25.61;98480.31;10336474;28;20074;-80
2022/03/13 11:19:06;;;;;;;2.65;1.33;;;;;;;11.20;27.07;98471.75;10342228;28;20042;-80
2022/03/13 11:24:10;;;;;;;1.70;1.60;;;;;;;11.47;26.27;98472.50;10339150;28;20051;-79
2022/03/13 11:29:15;;;;;;;2.17;1.50;;;;;;;11.63;26.02;98466.28;10330801;28;20047;-79
2022/03/13 11:34:22;;;;;;;2.08;1.65;;;;;;;11.74;25.46;98472.38;10330965;28;20054;-80
2022/03/13 11:39:26;;;;;;;2.05;1.60;;;;;;;11.90;25.43;98469.69;10329221;28;20057;-78
2022/03/13 11:44:40;;;;;;;1.70;1.55;;;;;;;11.96;25.24;98466.28;10326859;28;20038;-79
2022/03/13 11:49:45;;;;;;;1.88;1.50;;;;;;;12.06;26.33;98458.06;10326112;28;20110;-80
2022/03/13 11:55:00;;;;;;;1.88;1.60;;;;;;;12.23;25.60;98450.78;10326975;28;20042;-82
2022/03/13 12:00:34;;;;;;;2.30;1.80;;;;;;;12.32;26.34;98444.34;10322495;28;20042;-79
2022/03/13 12:05:49;;;;;;;1.77;1.67;;;;;;;12.43;27.71;98442.28;10329845;28;20054;-81
2022/03/13 12:10:52;;;;;;;1.77;1.60;;;;;;;12.29;26.04;98428.47;10335754;28;20141;-82
2022/03/13 12:16:12;;;;;;;3.65;1.80;;;;;;;12.40;26.67;98421.03;10320395;28;20019;-79
2022/03/13 12:21:18;;;;;;;3.13;1.65;;;;;;;12.53;27.94;98412.38;10358092;28;20042;-79
2022/03/13 12:26:23;;;;;;;3.05;1.90;;;;;;;12.68;27.87;98399.81;10355102;28;20049;-80
2022/03/13 12:31:27;;;;;;;2.10;1.90;;;;;;;12.95;29.04;98405.75;10337975;28;20045;-78
2022/03/13 12:36:41;;;;;;;4.72;1.77;;;;;;;13.16;27.48;98402.44;10318523;28;20048;-80
2022/03/13 12:41:46;;;;;;;3.65;1.77;;;;;;;13.42;28.58;98395.88;10305354;28;20074;-78
2022/03/13 12:46:51;;;;;;;3.25;2.03;;;;;;;13.56;28.60;98408.66;10309901;28;20078;-82
2022/03/13 12:52:23;;;;;;;2.22;1.95;;;;;;;13.69;28.29;98393.66;10319127;28;20571;-84
2022/03/13 12:57:31;;;;;;;6.63;2.20;;;;;;;13.71;28.94;98399.69;10324273;28;20039;-80
2022/03/13 13:02:35;;;;;;;2.97;1.77;;;;;;;13.67;28.00;98399.22;10318463;28;20503;-80
2022/03/13 13:07:41;;;;;;;1.95;1.52;;;;;;;14.06;28.28;98389.22;10312652;28;20034;-81
2022/03/13 13:12:45;;;;;;;3.30;1.92;;;;;;;14.25;28.37;98389.72;10333363;28;20515;-81
2022/03/13 13:17:49;;;;;;;2.22;1.98;;;;;;;14.48;28.21;98384.22;10332686;28;20189;-79
2022/03/13 13:23:09;;;;;;;2.65;1.67;;;;;;;14.56;27.44;98378.72;10331065;28;20157;-79
2022/03/13 13:28:13;;;;;;;4.28;1.85;;;;;;;14.70;27.46;98371.63;10328434;28;20300;-80
2022/03/13 13:33:19;;;;;;;1.95;1.63;;;;;;;14.76;26.69;98367.31;10331307;28;20674;-79
2022/03/13 13:38:31;;;;;;;4.45;1.67;;;;;;;14.89;26.90;98374.75;10312560;28;20043;-81
2022/03/13 13:43:43;;;;;;;1.75;1.40;;;;;;;15.26;27.57;98372.88;10314482;28;20153;-81
2022/03/13 13:48:48;;;;;;;4.85;1.80;;;;;;;15.59;26.69;98364.19;10323661;28;20046;-80
2022/03/13 13:54:00;;;;;;;1.60;1.50;;;;;;;15.94;26.29;98355.34;10313283;28;20039;-81
2022/03/13 13:59:20;;;;;;;2.45;1.63;;;;;;;16.09;25.29;98357.94;10321494;28;20038;-82
2022/03/13 14:04:23;;;;;;;2.20;1.45;;;;;;;16.31;25.06;98351.38;10324413;28;20043;-85
2022/03/13 14:09:29;;;;;;;1.55;1.40;;;;;;;16.56;25.24;98347.34;10318604;28;20042;-83
2022/03/13 14:14:32;;;;;;;3.30;1.63;;;;;;;16.69;24.44;98354.72;10328018;28;20065;-83
2022/03/13 14:19:35;;;;;;;1.77;1.60;;;;;;;16.87;25.21;98338.69;10302247;28;20055;-81
2022/03/13 14:24:40;;;;;;;1.85;1.60;;;;;;;16.79;25.16;98341.56;10313763;28;20070;-82
2022/03/13 14:29:43;;;;;;;1.95;1.65;;;;;;;17.05;24.71;98329.97;10321749;28;20526;-87
2022/03/13 14:34:46;;;;;;;1.83;1.38;;;;;;;16.98;24.98;98326.38;10318083;28;20161;-84
2022/03/13 14:39:51;;;;;;;1.75;1.40;;;;;;;17.00;24.95;98327.03;10343109;28;20055;-83
2022/03/13 14:44:57;;;;;;;1.80;1.50;;;;;;;17.00;24.37;98331.63;10347607;28;20050;-82
2022/03/13 14:50:18;;;;;;;1.40;1.30;;;;;;;17.09;23.65;98327.69;10315104;28;20042;-82
2022/03/13 14:55:30;;;;;;;3.42;1.42;;;;;;;17.06;23.52;98323.47;10323972;28;20035;-81
2022/03/13 15:00:34;;;;;;;1.42;1.33;;;;;;;17.38;24.28;98336.53;10316872;28;20039;-83
2022/03/13 15:05:38;;;;;;;1.35;1.23;;;;;;;17.66;23.97;98335.50;10310940;28;20061;-82
2022/03/13 15:10:44;;;;;;;1.40;1.30;;;;;;;17.92;23.52;98333.81;10335377;28;20487;-85
2022/03/13 15:15:55;;;;;;;1.58;1.40;;;;;;;18.08;23.27;98338.03;10322944;28;20422;-84
2022/03/13 15:21:02;;;;;;;2.65;1.20;;;;;;;18.18;23.06;98341.97;10340915;28;20135;-84
2022/03/13 15:26:07;;;;;;;1.77;1.20;;;;;;;18.22;23.33;98347.00;10336263;28;20087;-83
2022/03/13 15:31:10;;;;;;;1.48;1.20;;;;;;;18.17;23.04;98332.13;10343875;28;20057;-83
2022/03/13 15:36:14;;;;;;;1.77;1.27;;;;;;;18.08;22.62;98338.84;10342540;28;20059;-83
2022/03/13 15:41:18;;;;;;;3.35;1.38;;;;;;;17.87;23.38;98338.00;10343617;28;20046;-82
2022/03/13 15:46:22;;;;;;;1.55;1.30;;;;;;;17.94;23.39;98337.16;10323756;28;20084;-81
2022/03/13 15:51:31;;;;;;;1.50;1.30;;;;;;;17.92;23.41;98340.09;10334048;28;20106;-86
2022/03/13 15:56:36;;;;;;;2.30;1.35;;;;;;;17.60;24.11;98330.88;10343581;28;20050;-81
2022/03/13 16:01:39;;;;;;;2.63;1.63;;;;;;;17.30;24.20;98342.16;10317038;28;20419;-81
2022/03/13 16:06:43;;;;;;;2.25;1.65;;;;;;;16.94;24.64;98334.13;10319989;28;20054;-82
2022/03/13 16:11:48;;;;;;;2.50;1.80;;;;;;;16.38;24.58;98331.56;10326232;28;20047;-81
2022/03/13 16:16:53;;;;;;;1.85;1.63;;;;;;;16.04;25.35;98333.25;10318479;28;20038;-78
2022/03/13 16:22:01;;;;;;;3.67;1.80;;;;;;;15.84;25.29;98340.22;10324519;28;20090;-81
2022/03/13 16:27:07;;;;;;;4.88;1.80;;;;;;;15.69;25.82;98351.16;10324860;28;20046;-80
2022/03/13 16:32:13;;;;;;;1.92;1.73;;;;;;;15.66;25.66;98348.81;10323578;28;20050;-83
2022/03/13 16:37:18;;;;;;;2.55;1.90;;;;;;;15.69;26.71;98358.44;10312255;28;20163;-80
2022/03/13 16:42:22;;;;;;;2.92;1.70;;;;;;;15.40;26.29;98371.97;10333912;28;20101;-80
2022/03/13 16:47:26;;;;;;;4.35;1.80;;;;;;;15.22;25.78;98379.75;10337221;28;20045;-81
2022/03/13 16:52:29;;;;;;;2.15;1.95;;;;;;;15.00;25.00;98387.00;10318517;28;20042;-81
2022/03/13 16:57:34;;;;;;;3.53;2.05;;;;;;;14.76;25.37;98403.38;10320254;28;20861;-81
2022/03/13 17:02:37;;;;;;;2.10;1.90;;;;;;;14.09;24.88;98413.25;10318393;28;20046;-81
2022/03/13 17:07:40;;;;;;;2.30;2.10;;;;;;;13.75;25.54;98403.75;10310026;28;20055;-82
2022/03/13 17:12:47;;;;;;;2.70;2.10;;;;;;;13.43;25.98;98419.22;10321423;28;20074;-82
2022/03/13 17:17:55;;;;;;;2.20;2.00;;;;;;;12.95;26.06;98420.16;10318429;28;20162;-81
2022/03/13 17:22:59;;;;;;;2.10;1.80;;;;;;;12.51;26.54;98430.63;10316095;28;20603;-83
2022/03/13 17:28:06;;;;;;;2.88;2.05;;;;;;;12.06;26.50;98432.91;10323390;28;20048;-82
2022/03/13 17:33:10;;;;;;;2.60;2.13;;;;;;;11.74;26.98;98448.06;10315502;28;20057;-81
2022/03/13 17:38:13;;;;;;;2.78;2.35;;;;;;;11.47;27.16;98452.75;10314149;28;20039;-80
2022/03/13 17:43:18;;;;;;;3.13;2.30;;;;;;;11.08;27.60;98463.16;10313393;28;20047;-83
2022/03/13 17:48:21;;;;;;;2.15;1.90;;;;;;;10.80;27.32;98457.16;10319747;28;20058;-83
2022/03/13 17:53:24;;;;;;;2.50;2.30;;;;;;;10.53;27.70;98471.63;10330925;28;20073;-83
2022/03/13 17:58:29;;;;;;;2.85;2.35;;;;;;;10.31;27.94;98476.53;10327361;28;20050;-80
2022/03/13 18:03:32;;;;;;;2.55;2.35;;;;;;;10.04;27.88;98475.69;10309606;28;20070;-80
2022/03/13 18:08:35;;;;;;;2.63;2.22;;;;;;;9.77;29.13;98490.06;10312559;28;20043;-81
2022/03/13 18:13:39;;;;;;;3.40;2.55;;;;;;;9.45;29.77;98486.94;10318721;28;20053;-84
2022/03/13 18:18:43;;;;;;;4.35;2.60;;;;;;;9.12;29.24;98483.88;10354608;28;20104;-81
2022/03/13 18:23:46;;;;;;;4.13;3.50;;;;;;;8.87;30.31;98490.81;10348384;28;20050;-80
2022/03/13 18:28:52;;;;;;;4.03;2.63;;;;;;;8.57;30.37;98485.56;10345666;28;20035;-78
2022/03/13 18:33:55;;;;;;;2.97;2.58;;;;;;;8.29;31.15;98485.47;10347965;28;20058;-80
2022/03/13 18:38:58;;;;;;;5.22;3.72;;;;;;;8.02;31.28;98495.13;10356538;28;20034;-78
2022/03/13 18:44:04;;;;;;;3.80;2.95;;;;;;;7.79;31.56;98494.56;10341698;28;20074;-77
2022/03/13 18:49:07;;;;;;;4.05;2.70;;;;;;;7.63;31.33;98492.47;10334821;28;20082;-80
2022/03/13 18:54:10;;;;;;;3.03;2.55;;;;;;;7.48;31.72;98485.81;10328504;28;20105;-79
2022/03/13 18:59:15;;;;;;;3.85;2.58;;;;;;;7.33;32.36;98478.22;10342836;28;20058;-81
2022/03/13 19:04:19;;;;;;;3.05;2.63;;;;;;;7.20;32.55;98483.81;10346152;28;20050;-80
2022/03/13 19:09:22;;;;;;;3.15;2.83;;;;;;;7.07;33.07;98484.06;10348597;28;20042;-79
2022/03/13 19:14:27;;;;;;;3.92;3.05;;;;;;;6.97;33.24;98496.59;10354754;28;20043;-80
2022/03/13 19:19:31;;;;;;;3.92;3.00;;;;;;;6.93;33.35;98496.03;10335220;28;20078;-81
2022/03/13 19:24:34;;;;;;;3.20;2.90;;;;;;;6.75;33.23;98495.81;10347259;28;20050;-81
2022/03/13 19:29:39;;;;;;;3.55;2.90;;;;;;;6.66;34.01;98498.47;10334164;28;20038;-80
2022/03/13 19:34:42;;;;;;;5.22;2.95;;;;;;;6.53;33.09;98491.50;10343633;28;20541;-81
2022/03/13 19:39:45;;;;;;;3.72;2.95;;;;;;;6.42;33.68;98494.25;10350589;28;20065;-81
2022/03/13 19:44:49;;;;;;;4.90;4.30;;;;;;;6.32;33.43;98499.56;10358597;28;20106;-81
2022/03/13 19:49:53;;;;;;;6.50;3.80;;;;;;;6.20;34.04;98492.56;10347583;28;20043;-81
2022/03/13 19:54:56;;;;;;;4.60;3.45;;;;;;;6.14;33.89;98500.16;10346953;28;20043;-80
2022/03/13 20:00:01;;;;;;;3.75;2.88;;;;;;;6.11;33.62;98496.91;10338859;28;20043;-81
2022/03/13 20:05:14;;;;;;;4.75;2.78;;;;;;;6.09;33.70;98497.03;10343192;28;20101;-81
2022/03/13 20:10:18;;;;;;;6.78;2.63;;;;;;;6.06;33.70;98489.25;10358529;28;20046;-81
2022/03/13 20:15:22;;;;;;;4.05;2.70;;;;;;;6.08;33.43;98494.50;10356365;28;20031;-81
2022/03/13 20:20:26;;;;;;;3.58;2.42;;;;;;;6.05;33.84;98494.75;10353162;28;20062;-81
2022/03/13 20:25:30;;;;;;;3.88;2.63;;;;;;;5.99;33.91;98494.31;10368101;28;20022;-80
2022/03/13 20:30:35;;;;;;;6.13;2.63;;;;;;;5.98;33.72;98483.69;10379527;28;20038;-80
2022/03/13 20:35:38;;;;;;;3.22;2.50;;;;;;;5.96;34.10;98480.28;10377240;28;20506;-80
2022/03/13 20:40:41;;;;;;;4.55;2.70;;;;;;;5.91;33.92;98485.19;10357615;28;20047;-79
2022/03/13 20:45:45;;;;;;;4.45;2.90;;;;;;;5.82;33.85;98479.63;10032980;28;10000762;-79
2022/03/13 20:50:48;;;;;;;5.60;2.55;;;;;;;5.79;34.08;98495.09;10356024;28;20047;-79
2022/03/13 20:55:51;;;;;;;4.20;2.60;;;;;;;5.77;33.84;98499.72;10348393;28;20078;-79
2022/03/13 21:00:56;;;;;;;3.05;2.70;;;;;;;5.73;34.19;98503.63;10351607;28;20046;-80
2022/03/13 21:05:59;;;;;;;3.72;2.70;;;;;;;5.65;34.28;98502.44;10361396;28;20049;-81
2022/03/13 21:11:03;;;;;;;3.97;2.83;;;;;;;5.61;33.84;98510.84;10348143;28;20042;-80
2022/03/13 21:16:08;;;;;;;2.80;2.47;;;;;;;5.47;34.66;98520.84;10351322;28;20043;-79
2022/03/13 21:21:11;;;;;;;4.38;2.63;;;;;;;5.33;35.15;98521.16;10357220;28;20042;-79
2022/03/13 21:26:14;;;;;;;4.05;2.88;;;;;;;4.99;35.99;98522.06;10347973;28;20047;-78
2022/03/13 21:31:18;;;;;;;4.57;2.78;;;;;;;4.83;35.44;98525.09;10361376;28;20117;-79
2022/03/13 21:36:22;;;;;;;4.28;2.75;;;;;;;4.78;35.32;98525.47;10362864;28;20073;-79
2022/03/13 21:41:24;;;;;;;3.60;2.95;;;;;;;4.80;35.13;98533.34;10359749;28;20106;-80
2022/03/13 21:46:29;;;;;;;3.53;2.63;;;;;;;4.81;35.20;98519.03;10363226;28;20051;-79
2022/03/13 21:51:34;;;;;;;6.95;2.92;;;;;;;4.82;35.39;98528.75;10355287;28;20399;-79
2022/03/13 21:56:40;;;;;;;3.33;2.70;;;;;;;4.81;35.55;98527.03;10357623;28;20042;-79
2022/03/13 22:01:45;;;;;;;4.28;3.00;;;;;;;4.76;35.43;98531.91;10350290;28;20066;-80
2022/03/13 22:06:48;;;;;;;3.85;2.75;;;;;;;4.72;35.53;98531.28;10358809;28;20060;-79
2022/03/13 22:11:51;;;;;;;3.58;2.80;;;;;;;4.71;35.77;98531.41;10361871;28;20049;-80
2022/03/13 22:23:01;;;;;;;4.20;2.95;;;;;;;4.68;35.03;98535.19;10329125;28;20043;-80
2022/03/13 22:28:05;;;;;;;4.68;2.67;;;;;;;4.68;35.27;98537.84;10322396;28;20106;-82
2022/03/13 22:33:08;;;;;;;3.35;2.47;;;;;;;4.70;35.24;98540.38;10317740;28;20055;-79
2022/03/13 22:38:13;;;;;;;3.88;2.88;;;;;;;4.67;35.23;98554.84;10325702;28;20480;-79
2022/03/13 22:43:17;;;;;;;3.28;2.50;;;;;;;4.65;34.97;98547.91;10328820;28;20057;-80
2022/03/13 22:48:21;;;;;;;3.92;2.78;;;;;;;4.56;35.13;98547.66;10335845;28;20154;-79
2022/03/13 22:53:27;;;;;;;5.25;2.60;;;;;;;4.53;35.29;98547.06;10323006;28;20074;-80
2022/03/13 22:58:32;;;;;;;4.18;2.50;;;;;;;4.48;35.49;98550.09;10338517;28;20073;-81
2022/03/13 23:03:35;;;;;;;6.18;2.60;;;;;;;4.43;35.45;98546.91;10311376;28;20077;-82
2022/03/13 23:08:40;;;;;;;4.18;2.60;;;;;;;4.33;35.32;98552.13;10304117;28;20053;-82
2022/03/13 23:13:45;;;;;;;2.97;2.65;;;;;;;4.30;35.27;98547.03;10302130;28;20403;-82
2022/03/13 23:18:48;;;;;;;4.65;2.60;;;;;;;4.31;35.06;98543.38;10320392;28;20054;-81
2022/03/13 23:23:53;;;;;;;2.70;2.47;;;;;;;4.31;35.38;98554.06;10328767;28;20081;-82
2022/03/13 23:28:56;;;;;;;6.00;2.38;;;;;;;4.26;35.68;98551.75;10334765;28;20146;-83
2022/03/13 23:33:59;;;;;;;4.13;2.60;;;;;;;4.19;35.52;98555.84;10325312;28;20086;-82
2022/03/13 23:39:04;;;;;;;2.78;2.47;;;;;;;4.18;35.30;98559.47;10327581;28;20410;-81
2022/03/13 23:44:07;;;;;;;3.80;2.42;;;;;;;4.13;35.41;98550.97;10326713;28;20145;-81
2022/03/13 23:49:10;;;;;;;4.93;2.35;;;;;;;4.09;35.47;98554.84;10324973;28;20034;-80
2022/03/13 23:54:15;;;;;;;3.10;2.33;;;;;;;4.04;35.93;98559.69;10321011;28;20049;-81